Washburn, Illinois
Current Conditions -  °F | °C
As of 4:55 PM on Tuesday 21 Oct 2014 (Local Time) from KC75 Reporting Station
Clear Clear  
Wind Chill: 56°   Ceiling: Unl
Heat Index: 56°   Visibility: 10mi
Dew Point: 37°   Wind: 5mph
Humidity: 49%   Direction: 40°NE
Pressure: 30.17"   Gusts: NA
Location:  40.92°N, 89.29°W
Report Text: KC75 212155Z AUTO 04004KT 10SM CLR 14/03 A3017 RMK AO2 T01360030
Loading
Personal Weather Stations






























Interactive Weather Map
Tropical Storm Tracking
New forecast layout! Learn more

10-Day Weather Forecast

Advertisements
Track Severe Weather on mobile